sensor_id;sensor_type;location;lat;lon;timestamp;temperature;humidity
51579;DHT22;47998;53.242;6.386;2023-07-13T00:01:43;14.80;99.90
51579;DHT22;47998;53.242;6.386;2023-07-13T00:04:09;14.90;99.90
51579;DHT22;47998;53.242;6.386;2023-07-13T00:06:34;15.00;99.90
51579;DHT22;47998;53.242;6.386;2023-07-13T00:09:01;15.00;99.90
51579;DHT22;47998;53.242;6.386;2023-07-13T00:11:27;15.10;99.90
51579;DHT22;47998;53.242;6.386;2023-07-13T00:13:53;15.10;99.90
51579;DHT22;47998;53.242;6.386;2023-07-13T00:16:19;15.20;99.90
51579;DHT22;47998;53.242;6.386;2023-07-13T00:18:45;15.20;99.90
51579;DHT22;47998;53.242;6.386;2023-07-13T00:21:11;15.20;99.90
51579;DHT22;47998;53.242;6.386;2023-07-13T00:23:40;15.20;99.90
51579;DHT22;47998;53.242;6.386;2023-07-13T00:26:08;15.20;99.90
51579;DHT22;47998;53.242;6.386;2023-07-13T00:28:34;15.20;99.90
51579;DHT22;47998;53.242;6.386;2023-07-13T00:31:01;15.20;99.90
51579;DHT22;47998;53.242;6.386;2023-07-13T00:33:28;15.20;99.90
51579;DHT22;47998;53.242;6.386;2023-07-13T00:35:55;15.20;99.90
51579;DHT22;47998;53.242;6.386;2023-07-13T00:38:21;15.10;99.90
51579;DHT22;47998;53.242;6.386;2023-07-13T00:40:47;15.00;99.90
51579;DHT22;47998;53.242;6.386;2023-07-13T00:43:16;15.00;99.90
51579;DHT22;47998;53.242;6.386;2023-07-13T00:48:13;14.90;99.90
51579;DHT22;47998;53.242;6.386;2023-07-13T00:50:40;14.80;99.90
51579;DHT22;47998;53.242;6.386;2023-07-13T00:53:07;14.80;99.90
51579;DHT22;47998;53.242;6.386;2023-07-13T00:55:34;14.80;99.90
51579;DHT22;47998;53.242;6.386;2023-07-13T00:58:02;14.80;99.90
51579;DHT22;47998;53.242;6.386;2023-07-13T01:00:29;14.80;99.90
51579;DHT22;47998;53.242;6.386;2023-07-13T01:02:55;14.80;99.90
51579;DHT22;47998;53.242;6.386;2023-07-13T01:05:21;14.70;99.90
51579;DHT22;47998;53.242;6.386;2023-07-13T01:07:49;14.70;99.90
51579;DHT22;47998;53.242;6.386;2023-07-13T01:10:18;14.70;99.90
51579;DHT22;47998;53.242;6.386;2023-07-13T01:12:46;14.80;99.90
51579;DHT22;47998;53.242;6.386;2023-07-13T01:15:41;14.80;99.90
51579;DHT22;47998;53.242;6.386;2023-07-13T01:18:13;14.80;99.90
51579;DHT22;47998;53.242;6.386;2023-07-13T01:20:41;14.80;99.90
51579;DHT22;47998;53.242;6.386;2023-07-13T01:23:09;14.80;99.90
51579;DHT22;47998;53.242;6.386;2023-07-13T01:25:36;14.90;99.90
51579;DHT22;47998;53.242;6.386;2023-07-13T01:28:03;14.90;99.90
51579;DHT22;47998;53.242;6.386;2023-07-13T01:30:29;15.00;99.90
51579;DHT22;47998;53.242;6.386;2023-07-13T01:32:55;15.00;99.90
51579;DHT22;47998;53.242;6.386;2023-07-13T01:35:21;15.00;99.90
51579;DHT22;47998;53.242;6.386;2023-07-13T01:37:46;15.00;99.90
51579;DHT22;47998;53.242;6.386;2023-07-13T01:40:12;14.90;99.90
51579;DHT22;47998;53.242;6.386;2023-07-13T01:42:38;14.90;99.90
51579;DHT22;47998;53.242;6.386;2023-07-13T01:45:05;14.80;99.90
51579;DHT22;47998;53.242;6.386;2023-07-13T01:47:31;14.80;99.90
51579;DHT22;47998;53.242;6.386;2023-07-13T01:49:57;14.90;99.90
51579;DHT22;47998;53.242;6.386;2023-07-13T01:52:23;14.90;99.90
51579;DHT22;47998;53.242;6.386;2023-07-13T01:54:49;15.00;99.90
51579;DHT22;47998;53.242;6.386;2023-07-13T01:57:15;15.10;99.90
51579;DHT22;47998;53.242;6.386;2023-07-13T01:59:40;15.20;99.90
51579;DHT22;47998;53.242;6.386;2023-07-13T02:02:06;15.30;58.90
51579;DHT22;47998;53.242;6.386;2023-07-13T02:04:32;15.40;1.00
51579;DHT22;47998;53.242;6.386;2023-07-13T02:06:58;15.40;1.00
51579;DHT22;47998;53.242;6.386;2023-07-13T02:09:24;15.50;1.00
51579;DHT22;47998;53.242;6.386;2023-07-13T02:11:50;15.50;1.00
51579;DHT22;47998;53.242;6.386;2023-07-13T02:14:15;15.50;1.00
51579;DHT22;47998;53.242;6.386;2023-07-13T02:16:41;15.50;99.90
51579;DHT22;47998;53.242;6.386;2023-07-13T02:19:07;15.50;99.90
51579;DHT22;47998;53.242;6.386;2023-07-13T02:21:34;15.50;99.90
51579;DHT22;47998;53.242;6.386;2023-07-13T02:23:59;15.50;99.90
51579;DHT22;47998;53.242;6.386;2023-07-13T02:26:26;15.40;99.90
51579;DHT22;47998;53.242;6.386;2023-07-13T02:28:52;15.30;1.00
51579;DHT22;47998;53.242;6.386;2023-07-13T02:31:18;15.30;1.00
51579;DHT22;47998;53.242;6.386;2023-07-13T02:33:43;15.30;1.00
51579;DHT22;47998;53.242;6.386;2023-07-13T02:36:10;15.20;1.00
51579;DHT22;47998;53.242;6.386;2023-07-13T02:38:36;15.20;1.00
51579;DHT22;47998;53.242;6.386;2023-07-13T02:41:06;15.10;1.00
51579;DHT22;47998;53.242;6.386;2023-07-13T02:43:33;15.00;1.00
51579;DHT22;47998;53.242;6.386;2023-07-13T02:45:59;15.00;1.00
51579;DHT22;47998;53.242;6.386;2023-07-13T02:48:29;14.90;1.00
51579;DHT22;47998;53.242;6.386;2023-07-13T02:50:55;14.90;1.00
51579;DHT22;47998;53.242;6.386;2023-07-13T02:53:21;14.90;1.00
51579;DHT22;47998;53.242;6.386;2023-07-13T02:55:47;14.80;1.00
51579;DHT22;47998;53.242;6.386;2023-07-13T02:58:13;14.70;1.00
51579;DHT22;47998;53.242;6.386;2023-07-13T03:00:43;14.60;9.40
51579;DHT22;47998;53.242;6.386;2023-07-13T03:03:10;14.60;18.30
51579;DHT22;47998;53.242;6.386;2023-07-13T03:05:37;14.50;38.30
51579;DHT22;47998;53.242;6.386;2023-07-13T03:08:03;14.40;83.10
51579;DHT22;47998;53.242;6.386;2023-07-13T03:10:29;14.30;96.70
51579;DHT22;47998;53.242;6.386;2023-07-13T03:12:55;14.30;99.90
51579;DHT22;47998;53.242;6.386;2023-07-13T03:15:20;14.20;99.90
51579;DHT22;47998;53.242;6.386;2023-07-13T03:17:46;14.20;99.90
51579;DHT22;47998;53.242;6.386;2023-07-13T03:20:12;14.20;99.90
51579;DHT22;47998;53.242;6.386;2023-07-13T03:22:38;14.10;99.90
51579;DHT22;47998;53.242;6.386;2023-07-13T03:25:04;14.10;99.90
51579;DHT22;47998;53.242;6.386;2023-07-13T03:27:30;14.20;99.90
51579;DHT22;47998;53.242;6.386;2023-07-13T03:29:56;14.20;99.90
51579;DHT22;47998;53.242;6.386;2023-07-13T03:32:21;14.30;99.90
51579;DHT22;47998;53.242;6.386;2023-07-13T03:34:47;14.30;99.90
51579;DHT22;47998;53.242;6.386;2023-07-13T03:37:13;14.40;99.90
51579;DHT22;47998;53.242;6.386;2023-07-13T03:39:39;14.40;99.90
51579;DHT22;47998;53.242;6.386;2023-07-13T03:42:05;14.40;99.90
51579;DHT22;47998;53.242;6.386;2023-07-13T03:44:31;14.40;99.90
51579;DHT22;47998;53.242;6.386;2023-07-13T03:46:56;14.40;99.90
51579;DHT22;47998;53.242;6.386;2023-07-13T03:49:22;14.30;99.90
51579;DHT22;47998;53.242;6.386;2023-07-13T03:51:48;14.30;99.90
51579;DHT22;47998;53.242;6.386;2023-07-13T03:54:14;14.30;99.90
51579;DHT22;47998;53.242;6.386;2023-07-13T03:56:39;14.20;99.90
51579;DHT22;47998;53.242;6.386;2023-07-13T03:59:05;14.20;99.90
51579;DHT22;47998;53.242;6.386;2023-07-13T04:01:31;14.20;99.90
51579;DHT22;47998;53.242;6.386;2023-07-13T04:03:57;14.20;99.90
51579;DHT22;47998;53.242;6.386;2023-07-13T04:06:26;14.20;99.90
51579;DHT22;47998;53.242;6.386;2023-07-13T04:08:54;14.20;99.90
51579;DHT22;47998;53.242;6.386;2023-07-13T04:11:22;14.20;99.90
51579;DHT22;47998;53.242;6.386;2023-07-13T04:13:48;14.10;99.90
51579;DHT22;47998;53.242;6.386;2023-07-13T04:16:15;14.20;99.90
51579;DHT22;47998;53.242;6.386;2023-07-13T04:18:41;14.20;99.90
51579;DHT22;47998;53.242;6.386;2023-07-13T04:21:07;14.20;99.90
51579;DHT22;47998;53.242;6.386;2023-07-13T04:23:35;14.30;99.90
51579;DHT22;47998;53.242;6.386;2023-07-13T04:26:00;14.30;99.90
51579;DHT22;47998;53.242;6.386;2023-07-13T04:28:26;14.30;99.90
51579;DHT22;47998;53.242;6.386;2023-07-13T04:30:53;14.30;99.90
51579;DHT22;47998;53.242;6.386;2023-07-13T04:33:19;14.40;99.90
51579;DHT22;47998;53.242;6.386;2023-07-13T04:35:49;14.40;99.90
51579;DHT22;47998;53.242;6.386;2023-07-13T04:38:15;14.50;99.90
51579;DHT22;47998;53.242;6.386;2023-07-13T04:40:47;14.60;99.90
51579;DHT22;47998;53.242;6.386;2023-07-13T04:43:13;14.60;99.90
51579;DHT22;47998;53.242;6.386;2023-07-13T04:45:39;14.70;99.90
51579;DHT22;47998;53.242;6.386;2023-07-13T04:48:05;14.80;99.90
51579;DHT22;47998;53.242;6.386;2023-07-13T04:50:31;14.90;99.90
51579;DHT22;47998;53.242;6.386;2023-07-13T04:52:56;14.90;99.90
51579;DHT22;47998;53.242;6.386;2023-07-13T04:55:22;15.10;99.90
51579;DHT22;47998;53.242;6.386;2023-07-13T04:57:48;15.10;99.90
51579;DHT22;47998;53.242;6.386;2023-07-13T05:00:14;15.10;99.90
51579;DHT22;47998;53.242;6.386;2023-07-13T05:02:43;15.10;99.90
51579;DHT22;47998;53.242;6.386;2023-07-13T05:05:09;15.20;99.90
51579;DHT22;47998;53.242;6.386;2023-07-13T05:07:35;15.30;99.90
51579;DHT22;47998;53.242;6.386;2023-07-13T05:10:02;15.40;99.90
51579;DHT22;47998;53.242;6.386;2023-07-13T05:12:29;15.50;99.90
51579;DHT22;47998;53.242;6.386;2023-07-13T05:14:55;15.50;99.90
51579;DHT22;47998;53.242;6.386;2023-07-13T05:17:21;15.70;99.90
51579;DHT22;47998;53.242;6.386;2023-07-13T05:19:46;15.90;99.90
51579;DHT22;47998;53.242;6.386;2023-07-13T05:22:12;16.00;99.90
51579;DHT22;47998;53.242;6.386;2023-07-13T05:24:38;16.20;99.90
51579;DHT22;47998;53.242;6.386;2023-07-13T05:27:04;16.40;99.90
51579;DHT22;47998;53.242;6.386;2023-07-13T05:29:30;16.60;99.90
51579;DHT22;47998;53.242;6.386;2023-07-13T05:31:55;16.90;99.90
51579;DHT22;47998;53.242;6.386;2023-07-13T05:34:22;17.10;99.90
51579;DHT22;47998;53.242;6.386;2023-07-13T05:36:48;17.40;99.90
51579;DHT22;47998;53.242;6.386;2023-07-13T05:39:14;17.60;99.90
51579;DHT22;47998;53.242;6.386;2023-07-13T05:41:40;17.90;99.90
51579;DHT22;47998;53.242;6.386;2023-07-13T05:44:06;18.50;53.40
51579;DHT22;47998;53.242;6.386;2023-07-13T05:46:32;18.80;99.90
51579;DHT22;47998;53.242;6.386;2023-07-13T05:49:00;19.00;1.00
51579;DHT22;47998;53.242;6.386;2023-07-13T05:51:26;19.10;1.00
51579;DHT22;47998;53.242;6.386;2023-07-13T05:53:52;19.40;99.90
51579;DHT22;47998;53.242;6.386;2023-07-13T05:56:18;19.50;99.90
51579;DHT22;47998;53.242;6.386;2023-07-13T05:58:43;19.50;99.90
51579;DHT22;47998;53.242;6.386;2023-07-13T06:01:11;19.70;17.40
51579;DHT22;47998;53.242;6.386;2023-07-13T06:03:37;19.80;1.00
51579;DHT22;47998;53.242;6.386;2023-07-13T06:06:05;20.20;1.00
51579;DHT22;47998;53.242;6.386;2023-07-13T06:08:32;20.40;99.90
51579;DHT22;47998;53.242;6.386;2023-07-13T06:13:29;20.40;1.00
51579;DHT22;47998;53.242;6.386;2023-07-13T06:15:55;20.40;72.70
51579;DHT22;47998;53.242;6.386;2023-07-13T06:18:20;20.50;30.10
51579;DHT22;47998;53.242;6.386;2023-07-13T06:20:46;20.80;1.00
51579;DHT22;47998;53.242;6.386;2023-07-13T06:23:12;20.80;99.90
51579;DHT22;47998;53.242;6.386;2023-07-13T06:25:37;21.00;99.90
51579;DHT22;47998;53.242;6.386;2023-07-13T06:28:03;21.10;99.90
51579;DHT22;47998;53.242;6.386;2023-07-13T06:30:29;21.20;99.90
51579;DHT22;47998;53.242;6.386;2023-07-13T06:32:55;21.10;99.90
51579;DHT22;47998;53.242;6.386;2023-07-13T06:35:20;21.00;99.90
51579;DHT22;47998;53.242;6.386;2023-07-13T06:37:46;20.70;1.00
51579;DHT22;47998;53.242;6.386;2023-07-13T06:40:12;20.60;15.50
51579;DHT22;47998;53.242;6.386;2023-07-13T06:42:38;20.90;1.00
51579;DHT22;47998;53.242;6.386;2023-07-13T06:45:04;21.00;99.90
51579;DHT22;47998;53.242;6.386;2023-07-13T06:47:30;20.60;1.00
51579;DHT22;47998;53.242;6.386;2023-07-13T06:49:57;20.50;1.00
51579;DHT22;47998;53.242;6.386;2023-07-13T06:52:23;20.40;1.00
51579;DHT22;47998;53.242;6.386;2023-07-13T06:54:49;20.90;1.00
51579;DHT22;47998;53.242;6.386;2023-07-13T06:57:14;21.20;1.00
51579;DHT22;47998;53.242;6.386;2023-07-13T06:59:40;21.30;99.90
51579;DHT22;47998;53.242;6.386;2023-07-13T07:02:09;21.50;1.00
51579;DHT22;47998;53.242;6.386;2023-07-13T07:04:36;21.00;99.90
51579;DHT22;47998;53.242;6.386;2023-07-13T07:07:01;21.20;1.00
51579;DHT22;47998;53.242;6.386;2023-07-13T07:09:27;20.50;99.90
51579;DHT22;47998;53.242;6.386;2023-07-13T07:11:55;20.00;1.00
51579;DHT22;47998;53.242;6.386;2023-07-13T07:14:21;19.40;99.90
51579;DHT22;47998;53.242;6.386;2023-07-13T07:16:47;19.30;1.00
51579;DHT22;47998;53.242;6.386;2023-07-13T07:19:12;20.10;99.90
51579;DHT22;47998;53.242;6.386;2023-07-13T07:21:38;20.90;1.00
51579;DHT22;47998;53.242;6.386;2023-07-13T07:24:04;21.00;86.40
51579;DHT22;47998;53.242;6.386;2023-07-13T07:26:31;20.90;99.90
51579;DHT22;47998;53.242;6.386;2023-07-13T07:28:57;21.60;99.90
51579;DHT22;47998;53.242;6.386;2023-07-13T07:31:22;21.80;99.90
51579;DHT22;47998;53.242;6.386;2023-07-13T07:33:48;22.00;99.90
51579;DHT22;47998;53.242;6.386;2023-07-13T07:36:15;22.20;99.90
51579;DHT22;47998;53.242;6.386;2023-07-13T07:38:42;22.60;99.90
51579;DHT22;47998;53.242;6.386;2023-07-13T07:41:08;22.20;99.90
51579;DHT22;47998;53.242;6.386;2023-07-13T07:43:33;22.00;99.90
51579;DHT22;47998;53.242;6.386;2023-07-13T07:45:59;21.40;99.90
51579;DHT22;47998;53.242;6.386;2023-07-13T07:48:25;20.80;99.90
51579;DHT22;47998;53.242;6.386;2023-07-13T07:50:51;20.10;1.00
51579;DHT22;47998;53.242;6.386;2023-07-13T07:53:17;19.50;99.90
51579;DHT22;47998;53.242;6.386;2023-07-13T07:55:43;19.20;99.90
51579;DHT22;47998;53.242;6.386;2023-07-13T07:58:10;18.90;6.60
51579;DHT22;47998;53.242;6.386;2023-07-13T08:00:36;18.60;99.90
51579;DHT22;47998;53.242;6.386;2023-07-13T08:03:02;18.40;1.00
51579;DHT22;47998;53.242;6.386;2023-07-13T08:05:28;18.30;1.00
51579;DHT22;47998;53.242;6.386;2023-07-13T08:07:54;18.30;99.90
51579;DHT22;47998;53.242;6.386;2023-07-13T08:10:20;18.70;99.90
51579;DHT22;47998;53.242;6.386;2023-07-13T08:12:46;19.00;99.90
51579;DHT22;47998;53.242;6.386;2023-07-13T08:15:14;18.90;99.90
51579;DHT22;47998;53.242;6.386;2023-07-13T08:17:41;18.70;99.90
51579;DHT22;47998;53.242;6.386;2023-07-13T08:20:07;18.40;80.90
51579;DHT22;47998;53.242;6.386;2023-07-13T08:22:34;18.20;1.00
51579;DHT22;47998;53.242;6.386;2023-07-13T08:25:00;18.00;1.00
51579;DHT22;47998;53.242;6.386;2023-07-13T08:27:28;17.80;11.70
51579;DHT22;47998;53.242;6.386;2023-07-13T08:29:54;17.70;99.90
51579;DHT22;47998;53.242;6.386;2023-07-13T08:32:21;17.60;99.90
51579;DHT22;47998;53.242;6.386;2023-07-13T08:34:47;17.60;99.90
51579;DHT22;47998;53.242;6.386;2023-07-13T08:37:13;17.50;99.90
51579;DHT22;47998;53.242;6.386;2023-07-13T08:39:39;17.50;1.00
51579;DHT22;47998;53.242;6.386;2023-07-13T08:42:11;17.60;1.00
51579;DHT22;47998;53.242;6.386;2023-07-13T08:47:48;18.20;99.90
51579;DHT22;47998;53.242;6.386;2023-07-13T08:50:23;18.60;1.00
51579;DHT22;47998;53.242;6.386;2023-07-13T08:52:51;18.70;1.00
51579;DHT22;47998;53.242;6.386;2023-07-13T08:55:31;18.80;1.00
51579;DHT22;47998;53.242;6.386;2023-07-13T08:58:13;19.10;1.00
51579;DHT22;47998;53.242;6.386;2023-07-13T09:00:48;19.30;1.00
51579;DHT22;47998;53.242;6.386;2023-07-13T09:03:20;19.50;1.00
51579;DHT22;47998;53.242;6.386;2023-07-13T09:05:52;19.60;1.00
51579;DHT22;47998;53.242;6.386;2023-07-13T09:16:43;22.40;1.00
51579;DHT22;47998;53.242;6.386;2023-07-13T09:19:16;22.90;1.00
51579;DHT22;47998;53.242;6.386;2023-07-13T09:21:45;23.50;99.90
51579;DHT22;47998;53.242;6.386;2023-07-13T09:27:01;23.80;99.90
51579;DHT22;47998;53.242;6.386;2023-07-13T09:29:34;24.20;1.00
51579;DHT22;47998;53.242;6.386;2023-07-13T09:32:06;24.30;99.90
51579;DHT22;47998;53.242;6.386;2023-07-13T09:34:33;23.60;99.90
51579;DHT22;47998;53.242;6.386;2023-07-13T09:36:59;23.70;99.90
51579;DHT22;47998;53.242;6.386;2023-07-13T09:39:29;23.30;99.90
51579;DHT22;47998;53.242;6.386;2023-07-13T09:42:12;22.10;65.70
51579;DHT22;47998;53.242;6.386;2023-07-13T09:47:19;20.80;16.40
51579;DHT22;47998;53.242;6.386;2023-07-13T09:49:58;20.30;99.90
51579;DHT22;47998;53.242;6.386;2023-07-13T09:52:24;20.20;99.90
51579;DHT22;47998;53.242;6.386;2023-07-13T09:54:52;20.80;99.90
51579;DHT22;47998;53.242;6.386;2023-07-13T09:57:24;21.50;1.00
51579;DHT22;47998;53.242;6.386;2023-07-13T09:59:52;22.20;1.00
51579;DHT22;47998;53.242;6.386;2023-07-13T10:02:36;22.60;99.90
51579;DHT22;47998;53.242;6.386;2023-07-13T10:05:14;22.00;1.00
51579;DHT22;47998;53.242;6.386;2023-07-13T10:07:44;21.00;56.90
51579;DHT22;47998;53.242;6.386;2023-07-13T10:10:27;21.00;99.90
51579;DHT22;47998;53.242;6.386;2023-07-13T10:12:53;22.00;1.00
51579;DHT22;47998;53.242;6.386;2023-07-13T10:15:23;21.80;99.90
51579;DHT22;47998;53.242;6.386;2023-07-13T10:17:55;21.40;99.90
51579;DHT22;47998;53.242;6.386;2023-07-13T10:20:25;21.90;99.90
51579;DHT22;47998;53.242;6.386;2023-07-13T10:23:02;22.50;1.00
51579;DHT22;47998;53.242;6.386;2023-07-13T10:25:37;22.50;1.00
51579;DHT22;47998;53.242;6.386;2023-07-13T10:30:53;22.90;77.00
51579;DHT22;47998;53.242;6.386;2023-07-13T10:33:21;22.20;1.00
51579;DHT22;47998;53.242;6.386;2023-07-13T10:35:52;21.80;1.00
51579;DHT22;47998;53.242;6.386;2023-07-13T10:38:23;21.80;1.00
51579;DHT22;47998;53.242;6.386;2023-07-13T10:43:23;21.70;1.00
51579;DHT22;47998;53.242;6.386;2023-07-13T10:45:50;22.00;1.00
51579;DHT22;47998;53.242;6.386;2023-07-13T10:48:17;22.00;1.00
51579;DHT22;47998;53.242;6.386;2023-07-13T10:50:45;21.70;1.00
51579;DHT22;47998;53.242;6.386;2023-07-13T10:58:37;21.40;99.90
51579;DHT22;47998;53.242;6.386;2023-07-13T11:03:35;20.20;99.90
51579;DHT22;47998;53.242;6.386;2023-07-13T11:08:52;21.20;99.90
51579;DHT22;47998;53.242;6.386;2023-07-13T11:18:49;23.20;1.00
51579;DHT22;47998;53.242;6.386;2023-07-13T11:21:16;23.00;1.00
51579;DHT22;47998;53.242;6.386;2023-07-13T11:23:44;22.80;1.00
51579;DHT22;47998;53.242;6.386;2023-07-13T11:29:36;22.30;99.90
51579;DHT22;47998;53.242;6.386;2023-07-13T11:32:23;22.50;1.00
51579;DHT22;47998;53.242;6.386;2023-07-13T11:34:53;23.00;1.00
51579;DHT22;47998;53.242;6.386;2023-07-13T11:37:22;22.70;1.00
51579;DHT22;47998;53.242;6.386;2023-07-13T11:39:50;22.40;1.00
51579;DHT22;47998;53.242;6.386;2023-07-13T11:42:18;22.60;1.00
51579;DHT22;47998;53.242;6.386;2023-07-13T11:44:47;22.50;99.90
51579;DHT22;47998;53.242;6.386;2023-07-13T11:47:19;22.10;99.90
51579;DHT22;47998;53.242;6.386;2023-07-13T11:49:55;22.30;1.00
51579;DHT22;47998;53.242;6.386;2023-07-13T11:52:37;22.80;1.00
51579;DHT22;47998;53.242;6.386;2023-07-13T11:55:18;23.00;99.90
51579;DHT22;47998;53.242;6.386;2023-07-13T11:57:56;23.10;99.90
51579;DHT22;47998;53.242;6.386;2023-07-13T12:00:26;22.70;99.90
51579;DHT22;47998;53.242;6.386;2023-07-13T12:02:55;22.70;99.90
51579;DHT22;47998;53.242;6.386;2023-07-13T12:05:24;22.70;99.90
51579;DHT22;47998;53.242;6.386;2023-07-13T12:07:51;22.80;99.90
51579;DHT22;47998;53.242;6.386;2023-07-13T12:10:25;22.80;99.90
51579;DHT22;47998;53.242;6.386;2023-07-13T12:13:02;23.20;99.90
51579;DHT22;47998;53.242;6.386;2023-07-13T12:15:43;23.20;1.00
51579;DHT22;47998;53.242;6.386;2023-07-13T12:18:14;22.10;99.90
51579;DHT22;47998;53.242;6.386;2023-07-13T12:20:40;21.50;99.90
51579;DHT22;47998;53.242;6.386;2023-07-13T12:23:14;21.30;1.00
51579;DHT22;47998;53.242;6.386;2023-07-13T12:25:45;21.20;1.00
51579;DHT22;47998;53.242;6.386;2023-07-13T12:28:22;20.70;99.90
51579;DHT22;47998;53.242;6.386;2023-07-13T12:30:49;19.70;99.90
51579;DHT22;47998;53.242;6.386;2023-07-13T12:33:16;19.50;99.90
51579;DHT22;47998;53.242;6.386;2023-07-13T12:35:51;19.50;99.90
51579;DHT22;47998;53.242;6.386;2023-07-13T12:38:21;19.30;99.90
51579;DHT22;47998;53.242;6.386;2023-07-13T12:40:50;19.60;99.90
51579;DHT22;47998;53.242;6.386;2023-07-13T12:43:17;20.70;99.90
51579;DHT22;47998;53.242;6.386;2023-07-13T12:46:05;21.80;1.00
51579;DHT22;47998;53.242;6.386;2023-07-13T12:48:42;21.30;1.00
51579;DHT22;47998;53.242;6.386;2023-07-13T12:51:12;20.90;99.90
51579;DHT22;47998;53.242;6.386;2023-07-13T12:53:47;20.80;99.90
51579;DHT22;47998;53.242;6.386;2023-07-13T12:56:23;20.50;99.90
51579;DHT22;47998;53.242;6.386;2023-07-13T12:58:56;21.10;99.90
51579;DHT22;47998;53.242;6.386;2023-07-13T13:01:22;21.60;99.90
51579;DHT22;47998;53.242;6.386;2023-07-13T13:03:52;21.20;99.90
51579;DHT22;47998;53.242;6.386;2023-07-13T13:06:23;20.00;99.90
51579;DHT22;47998;53.242;6.386;2023-07-13T13:08:51;18.70;1.00
51579;DHT22;47998;53.242;6.386;2023-07-13T13:11:19;18.10;99.90
51579;DHT22;47998;53.242;6.386;2023-07-13T13:13:45;16.50;99.90
51579;DHT22;47998;53.242;6.386;2023-07-13T13:18:53;16.70;1.00
51579;DHT22;47998;53.242;6.386;2023-07-13T13:21:19;16.90;20.80
51579;DHT22;47998;53.242;6.386;2023-07-13T13:23:45;17.40;1.00
51579;DHT22;47998;53.242;6.386;2023-07-13T13:26:14;18.10;99.90
51579;DHT22;47998;53.242;6.386;2023-07-13T13:28:44;18.70;1.00
51579;DHT22;47998;53.242;6.386;2023-07-13T13:31:12;18.80;99.90
51579;DHT22;47998;53.242;6.386;2023-07-13T13:33:43;19.40;99.90
51579;DHT22;47998;53.242;6.386;2023-07-13T13:36:15;19.60;99.90
51579;DHT22;47998;53.242;6.386;2023-07-13T13:38:42;19.20;99.90
51579;DHT22;47998;53.242;6.386;2023-07-13T13:41:13;19.20;70.10
51579;DHT22;47998;53.242;6.386;2023-07-13T13:43:42;19.80;1.00
51579;DHT22;47998;53.242;6.386;2023-07-13T13:46:18;20.40;1.00
51579;DHT22;47998;53.242;6.386;2023-07-13T13:48:45;20.70;99.90
51579;DHT22;47998;53.242;6.386;2023-07-13T13:51:19;20.90;99.90
51579;DHT22;47998;53.242;6.386;2023-07-13T13:53:48;21.00;83.20
51579;DHT22;47998;53.242;6.386;2023-07-13T13:56:15;21.10;17.10
51579;DHT22;47998;53.242;6.386;2023-07-13T13:58:42;21.00;62.10
51579;DHT22;47998;53.242;6.386;2023-07-13T14:01:21;21.20;99.90
51579;DHT22;47998;53.242;6.386;2023-07-13T14:03:48;21.20;99.90
51579;DHT22;47998;53.242;6.386;2023-07-13T14:06:17;21.30;1.00
51579;DHT22;47998;53.242;6.386;2023-07-13T14:08:43;21.40;1.00
51579;DHT22;47998;53.242;6.386;2023-07-13T14:11:14;21.40;99.90
51579;DHT22;47998;53.242;6.386;2023-07-13T14:13:49;21.40;1.00
51579;DHT22;47998;53.242;6.386;2023-07-13T14:16:19;20.90;99.90
51579;DHT22;47998;53.242;6.386;2023-07-13T14:18:46;20.90;1.00
51579;DHT22;47998;53.242;6.386;2023-07-13T14:21:17;20.90;1.00
51579;DHT22;47998;53.242;6.386;2023-07-13T14:23:44;21.00;99.90
51579;DHT22;47998;53.242;6.386;2023-07-13T14:26:16;20.60;99.90
51579;DHT22;47998;53.242;6.386;2023-07-13T14:28:48;20.70;99.90
51579;DHT22;47998;53.242;6.386;2023-07-13T14:31:15;21.20;99.90
51579;DHT22;47998;53.242;6.386;2023-07-13T14:33:42;21.20;1.00
51579;DHT22;47998;53.242;6.386;2023-07-13T14:36:32;21.30;1.00
51579;DHT22;47998;53.242;6.386;2023-07-13T14:38:59;20.50;1.00
51579;DHT22;47998;53.242;6.386;2023-07-13T14:41:27;21.00;1.00
51579;DHT22;47998;53.242;6.386;2023-07-13T14:43:53;20.80;1.00
51579;DHT22;47998;53.242;6.386;2023-07-13T14:46:31;20.70;1.00
51579;DHT22;47998;53.242;6.386;2023-07-13T14:49:09;20.80;1.00
51579;DHT22;47998;53.242;6.386;2023-07-13T14:51:38;21.10;99.90
51579;DHT22;47998;53.242;6.386;2023-07-13T14:54:07;20.60;99.90
51579;DHT22;47998;53.242;6.386;2023-07-13T14:56:34;20.70;99.90
51579;DHT22;47998;53.242;6.386;2023-07-13T14:58:59;21.10;1.00
51579;DHT22;47998;53.242;6.386;2023-07-13T15:01:26;20.60;99.90
51579;DHT22;47998;53.242;6.386;2023-07-13T15:03:53;20.50;1.00
51579;DHT22;47998;53.242;6.386;2023-07-13T15:06:19;21.00;1.00
51579;DHT22;47998;53.242;6.386;2023-07-13T15:08:46;20.70;99.90
51579;DHT22;47998;53.242;6.386;2023-07-13T15:11:12;20.50;99.90
51579;DHT22;47998;53.242;6.386;2023-07-13T15:13:40;20.50;98.90
51579;DHT22;47998;53.242;6.386;2023-07-13T15:16:21;20.70;89.20
51579;DHT22;47998;53.242;6.386;2023-07-13T15:18:47;21.00;88.00
51579;DHT22;47998;53.242;6.386;2023-07-13T15:21:23;21.10;99.90
51579;DHT22;47998;53.242;6.386;2023-07-13T15:23:50;20.60;99.90
51579;DHT22;47998;53.242;6.386;2023-07-13T15:26:17;20.80;99.90
51579;DHT22;47998;53.242;6.386;2023-07-13T15:28:45;20.90;1.00
51579;DHT22;47998;53.242;6.386;2023-07-13T15:33:45;20.10;99.90
51579;DHT22;47998;53.242;6.386;2023-07-13T15:36:14;20.50;99.90
51579;DHT22;47998;53.242;6.386;2023-07-13T15:38:40;20.90;99.90
51579;DHT22;47998;53.242;6.386;2023-07-13T15:41:21;20.70;99.90
51579;DHT22;47998;53.242;6.386;2023-07-13T15:43:52;20.90;99.90
51579;DHT22;47998;53.242;6.386;2023-07-13T15:46:21;20.60;1.00
51579;DHT22;47998;53.242;6.386;2023-07-13T15:48:48;21.10;99.90
51579;DHT22;47998;53.242;6.386;2023-07-13T15:51:24;21.30;99.90
51579;DHT22;47998;53.242;6.386;2023-07-13T15:53:53;21.40;64.30
51579;DHT22;47998;53.242;6.386;2023-07-13T15:56:24;21.20;26.00
51579;DHT22;47998;53.242;6.386;2023-07-13T15:58:51;21.30;1.00
51579;DHT22;47998;53.242;6.386;2023-07-13T16:01:17;20.90;1.00
51579;DHT22;47998;53.242;6.386;2023-07-13T16:03:45;21.00;27.30
51579;DHT22;47998;53.242;6.386;2023-07-13T16:06:16;20.90;99.90
51579;DHT22;47998;53.242;6.386;2023-07-13T16:08:44;21.00;99.90
51579;DHT22;47998;53.242;6.386;2023-07-13T16:11:27;21.20;99.90
51579;DHT22;47998;53.242;6.386;2023-07-13T16:13:53;21.60;1.00
51579;DHT22;47998;53.242;6.386;2023-07-13T16:16:22;21.80;21.20
51579;DHT22;47998;53.242;6.386;2023-07-13T16:18:55;21.90;99.90
51579;DHT22;47998;53.242;6.386;2023-07-13T16:21:26;21.70;1.00
51579;DHT22;47998;53.242;6.386;2023-07-13T16:23:53;21.40;87.20
51579;DHT22;47998;53.242;6.386;2023-07-13T16:26:28;21.40;99.90
51579;DHT22;47998;53.242;6.386;2023-07-13T16:28:54;20.70;99.90
51579;DHT22;47998;53.242;6.386;2023-07-13T16:31:29;20.20;99.90
51579;DHT22;47998;53.242;6.386;2023-07-13T16:33:57;20.10;1.00
51579;DHT22;47998;53.242;6.386;2023-07-13T16:36:25;20.60;5.40